Terminal Aerodrome Forecast
Issued by NWS

Home | Current Version | Previous Version | Text Only | Print | Product List | Glossary On
Versions: 1 2 3 4 5 6 7 8 9 10 11 12 13 14 15 16 17 18 19 20 21 22 23
000
FTUS44 KHGX 161138
TAFIAH
TAF
KIAH 161138Z 1612/1718 12006KT P6SM OVC090
     FM161800 10010KT P6SM VCSH OVC050
     FM162200 08012KT P6SM -SHRA SCT025 OVC050
     FM170100 09012KT 4SM TSRA SCT007 OVC015CB
     FM170500 05010KT P6SM SCT010 OVC020
     FM171000 07003KT 4SM BR BKN007
     FM171500 34003KT 6SM BR BKN010=

USA.gov is the U.S. government's official web portal to all federal, state and local government web resources and services.